Time;durP1;ratioP1;P1;durP2;ratioP2;P2;SDS_P1;SDS_P2;PMS_P1;PMS_P2;Temp;Humidity;BMP_temperature;BMP_pressure;BME280_temperature;BME280_humidity;BME280_pressure;Samples;Min_cycle;Max_cycle;Signal;HPM_P1;HPM_P2
2024/04/04 00:00:55;;;;;;;10.20;1.92;;;10.50;1.00;;;;;;5076003;28;20029;-72
2024/04/04 00:03:21;;;;;;;8.40;1.85;;;10.50;1.00;;;;;;5075861;28;20024;-72
2024/04/04 00:05:50;;;;;;;5.97;1.33;;;10.50;1.00;;;;;;5075522;28;20040;-72
2024/04/04 00:08:16;;;;;;;5.80;1.95;;;10.40;1.00;;;;;;5075754;28;20533;-73
2024/04/04 00:10:42;;;;;;;6.85;1.48;;;10.40;1.00;;;;;;5075976;28;20024;-71
2024/04/04 00:13:07;;;;;;;7.70;1.67;;;10.30;1.00;;;;;;5075180;28;20117;-72
2024/04/04 00:15:41;;;;;;;3.67;1.40;;;10.30;1.00;;;;;;5075542;28;20029;-72
2024/04/04 00:18:07;;;;;;;6.70;1.77;;;10.20;1.00;;;;;;5075854;28;20444;-72
2024/04/04 00:20:38;;;;;;;6.57;1.27;;;10.30;1.00;;;;;;5075515;28;20029;-72
2024/04/04 00:23:04;;;;;;;5.72;1.70;;;10.20;1.00;;;;;;5075132;28;20433;-72
2024/04/04 00:25:30;;;;;;;4.57;1.30;;;10.20;1.00;;;;;;5075557;28;20028;-72
2024/04/04 00:27:56;;;;;;;5.22;1.38;;;10.20;1.00;;;;;;5075479;28;20085;-72
2024/04/04 00:30:21;;;;;;;6.80;1.33;;;10.20;1.00;;;;;;5075392;28;20032;-72
2024/04/04 00:32:47;;;;;;;6.68;1.88;;;10.20;1.00;;;;;;5075391;28;20028;-72
2024/04/04 00:35:12;;;;;;;9.60;1.50;;;10.10;1.00;;;;;;5074816;28;20123;-72
2024/04/04 00:37:38;;;;;;;3.72;1.33;;;10.00;1.00;;;;;;5074968;28;20020;-72
2024/04/04 00:40:05;;;;;;;5.57;1.42;;;9.90;1.00;;;;;;5074807;28;20020;-72
2024/04/04 00:42:31;;;;;;;10.43;1.60;;;10.00;1.00;;;;;;5074545;28;20020;-72
2024/04/04 00:44:56;;;;;;;4.47;1.65;;;9.90;1.00;;;;;;5075168;28;20028;-72
2024/04/04 00:47:22;;;;;;;8.55;1.70;;;9.80;1.00;;;;;;5075115;28;20028;-71
2024/04/04 00:49:48;;;;;;;6.53;1.63;;;9.80;1.00;;;;;;5074979;28;20032;-72
2024/04/04 00:52:14;;;;;;;6.50;1.85;;;9.80;1.00;;;;;;5075091;28;20032;-71
2024/04/04 00:54:42;;;;;;;3.55;1.23;;;9.80;1.00;;;;;;5074970;28;20024;-72
2024/04/04 00:57:08;;;;;;;6.63;1.27;;;9.80;1.00;;;;;;5074667;28;20066;-71
2024/04/04 00:59:36;;;;;;;5.80;1.90;;;9.70;1.00;;;;;;5074865;28;20020;-71
2024/04/04 01:02:01;;;;;;;4.70;1.50;;;9.70;1.00;;;;;;5074743;28;20086;-71
2024/04/04 01:04:27;;;;;;;7.82;1.70;;;9.60;2.40;;;;;;5074381;28;20020;-72
2024/04/04 01:06:52;;;;;;;10.10;1.80;;;9.60;1.00;;;;;;5074535;28;20064;-71
2024/04/04 01:09:18;;;;;;;5.90;1.90;;;9.50;6.80;;;;;;5074633;28;20063;-72
2024/04/04 01:11:43;;;;;;;6.38;1.70;;;9.50;10.70;;;;;;5074536;28;20032;-72
2024/04/04 01:14:09;;;;;;;5.22;1.77;;;9.40;19.50;;;;;;5074368;28;20049;-71
2024/04/04 01:16:35;;;;;;;10.82;1.90;;;9.40;15.90;;;;;;5073921;28;20036;-71
2024/04/04 01:19:00;;;;;;;8.07;2.10;;;9.40;20.10;;;;;;5074417;28;20078;-71
2024/04/04 01:21:26;;;;;;;8.77;1.77;;;9.40;16.00;;;;;;5074440;28;20486;-71
2024/04/04 01:23:52;;;;;;;7.60;1.95;;;9.30;22.90;;;;;;5074298;28;20025;-71
2024/04/04 01:26:17;;;;;;;12.93;3.00;;;9.30;24.80;;;;;;5074205;28;20032;-72
2024/04/04 01:28:44;;;;;;;6.97;1.80;;;9.20;26.40;;;;;;5074225;28;20479;-72
2024/04/04 01:31:10;;;;;;;7.57;1.58;;;9.20;25.90;;;;;;5073886;28;20029;-71
2024/04/04 01:33:36;;;;;;;8.05;1.98;;;9.20;29.80;;;;;;5074074;28;20036;-71
2024/04/04 01:36:02;;;;;;;8.63;1.80;;;9.20;30.60;;;;;;5074016;28;20024;-71
2024/04/04 01:38:27;;;;;;;5.55;1.45;;;9.20;29.90;;;;;;5074095;28;20028;-71
2024/04/04 01:40:54;;;;;;;7.47;1.65;;;9.20;34.70;;;;;;5073992;28;20101;-71
2024/04/04 01:43:19;;;;;;;7.95;2.45;;;9.20;37.40;;;;;;5074070;28;20093;-72
2024/04/04 01:45:45;;;;;;;16.85;2.47;;;9.20;33.70;;;;;;5074020;28;20033;-71
2024/04/04 01:48:11;;;;;;;7.50;2.00;;;9.20;35.30;;;;;;5073980;28;20086;-71
2024/04/04 01:50:37;;;;;;;7.63;1.92;;;9.20;36.40;;;;;;5073373;28;20029;-71
2024/04/04 01:53:02;;;;;;;9.73;2.33;;;9.30;36.90;;;;;;5072618;28;20094;-71
2024/04/04 01:55:30;;;;;;;12.07;1.92;;;9.30;38.10;;;;;;5073650;28;20036;-71
2024/04/04 01:57:57;;;;;;;7.00;1.90;;;9.30;38.30;;;;;;5073723;28;20021;-71
2024/04/04 02:00:23;;;;;;;9.25;1.73;;;9.30;38.50;;;;;;5073740;28;20033;-71
2024/04/04 02:02:49;;;;;;;12.77;1.80;;;9.30;43.40;;;;;;5073687;28;20035;-71
2024/04/04 02:05:14;;;;;;;11.55;1.80;;;9.30;43.50;;;;;;5073773;28;20029;-71
2024/04/04 02:07:40;;;;;;;13.40;2.08;;;9.20;43.70;;;;;;5073618;28;20028;-71
2024/04/04 02:10:05;;;;;;;13.48;2.00;;;9.10;50.90;;;;;;5073037;28;20029;-71
2024/04/04 02:12:31;;;;;;;11.13;2.10;;;9.10;55.10;;;;;;5073104;28;20401;-71
2024/04/04 02:14:57;;;;;;;7.82;1.58;;;9.10;54.50;;;;;;5073166;28;20486;-71
2024/04/04 02:17:24;;;;;;;4.47;1.75;;;9.00;56.60;;;;;;5073244;28;20039;-71
2024/04/04 02:19:49;;;;;;;7.43;1.80;;;9.00;57.10;;;;;;5073421;28;20028;-71
2024/04/04 02:22:15;;;;;;;7.35;1.90;;;9.00;59.50;;;;;;5073483;28;20035;-71
2024/04/04 02:24:42;;;;;;;8.95;1.85;;;8.90;61.50;;;;;;5073531;28;20456;-71
2024/04/04 02:27:08;;;;;;;6.82;1.55;;;8.90;62.90;;;;;;5073246;28;20046;-71
2024/04/04 02:29:34;;;;;;;10.23;2.20;;;8.90;63.20;;;;;;5073339;28;20029;-71
2024/04/04 02:32:00;;;;;;;11.75;2.35;;;8.90;65.70;;;;;;5072824;28;20060;-71
2024/04/04 02:34:25;;;;;;;6.68;2.53;;;8.80;64.70;;;;;;5073056;28;20025;-71
2024/04/04 02:36:51;;;;;;;4.88;1.58;;;8.70;70.70;;;;;;5073071;28;20054;-73
2024/04/04 02:39:17;;;;;;;5.53;1.98;;;8.70;84.10;;;;;;5073362;28;20151;-72
2024/04/04 02:41:43;;;;;;;8.60;1.77;;;8.70;89.50;;;;;;5072956;28;20039;-72
2024/04/04 02:44:10;;;;;;;7.47;1.80;;;8.70;90.10;;;;;;5073362;28;20107;-72
2024/04/04 02:46:35;;;;;;;3.95;1.58;;;8.70;90.80;;;;;;5073199;28;20028;-71
2024/04/04 02:49:02;;;;;;;5.10;1.70;;;8.80;91.40;;;;;;5072689;28;20478;-71
2024/04/04 02:51:28;;;;;;;7.32;2.13;;;8.80;90.70;;;;;;5073176;28;20020;-71
2024/04/04 02:53:53;;;;;;;8.30;1.60;;;8.90;87.50;;;;;;5073135;28;20394;-71
2024/04/04 02:56:19;;;;;;;11.80;2.10;;;8.90;82.60;;;;;;5072739;28;20120;-73
2024/04/04 02:58:45;;;;;;;6.57;2.25;;;9.00;83.30;;;;;;5072655;28;20028;-72
2024/04/04 03:01:11;;;;;;;9.57;2.15;;;9.10;84.20;;;;;;5073136;28;20025;-71
2024/04/04 03:03:36;;;;;;;5.43;1.85;;;9.10;81.50;;;;;;5072557;28;20035;-71
2024/04/04 03:06:02;;;;;;;4.85;1.42;;;9.10;78.60;;;;;;5076420;28;20178;-71
2024/04/04 03:08:28;;;;;;;7.40;1.50;;;9.20;77.50;;;;;;5076866;28;20027;-72
2024/04/04 03:10:54;;;;;;;5.65;2.00;;;9.20;74.90;;;;;;5076445;28;20475;-72
2024/04/04 03:13:19;;;;;;;6.20;1.48;;;9.30;66.60;;;;;;5076774;28;20028;-71
2024/04/04 03:16:00;;;;;;;7.60;1.92;;;9.30;62.20;;;;;;5076833;28;20093;-71
2024/04/04 03:18:26;;;;;;;7.18;2.10;;;9.40;64.70;;;;;;5076806;28;20483;-71
2024/04/04 03:20:51;;;;;;;6.05;1.92;;;9.40;57.70;;;;;;5076806;28;20024;-71
2024/04/04 03:23:17;;;;;;;4.63;1.50;;;9.40;57.60;;;;;;5076619;28;20039;-71
2024/04/04 03:25:43;;;;;;;8.20;1.85;;;9.40;56.70;;;;;;5076604;28;20029;-71
2024/04/04 03:28:08;;;;;;;4.45;1.50;;;9.50;55.50;;;;;;5076612;28;20095;-71
2024/04/04 03:30:34;;;;;;;2.65;1.23;;;9.50;53.70;;;;;;5075996;28;20025;-71
2024/04/04 03:32:59;;;;;;;5.82;1.50;;;9.50;53.00;;;;;;5075946;28;20104;-71
2024/04/04 03:35:25;;;;;;;8.18;2.78;;;9.50;51.50;;;;;;5076460;28;20032;-71
2024/04/04 03:37:51;;;;;;;7.50;1.55;;;9.50;51.20;;;;;;5076022;28;20024;-73
2024/04/04 03:40:17;;;;;;;6.90;2.05;;;9.60;49.80;;;;;;5076377;28;20028;-72
2024/04/04 03:42:42;;;;;;;10.13;2.72;;;9.60;50.00;;;;;;5075956;28;20080;-71
2024/04/04 03:45:08;;;;;;;6.55;1.90;;;9.60;53.70;;;;;;5076301;28;20035;-71
2024/04/04 03:47:34;;;;;;;5.10;1.60;;;9.60;56.40;;;;;;5076183;28;20082;-71
2024/04/04 03:50:01;;;;;;;8.95;2.25;;;9.60;60.50;;;;;;5076230;28;20036;-72
2024/04/04 03:52:26;;;;;;;4.20;1.50;;;9.60;66.60;;;;;;5076241;28;20025;-72
2024/04/04 03:54:52;;;;;;;4.53;1.60;;;9.60;67.30;;;;;;5076227;28;20036;-71
2024/04/04 03:57:17;;;;;;;6.88;1.52;;;9.60;71.10;;;;;;5075686;28;20537;-71
2024/04/04 03:59:43;;;;;;;4.65;1.70;;;9.60;74.40;;;;;;5076141;28;20115;-71
2024/04/04 04:02:08;;;;;;;7.20;1.70;;;9.60;78.70;;;;;;5075973;28;20084;-71
2024/04/04 04:04:34;;;;;;;7.53;1.67;;;9.60;84.40;;;;;;5075900;28;20028;-71
2024/04/04 04:07:00;;;;;;;7.25;1.70;;;9.60;90.40;;;;;;5075932;28;20436;-71
2024/04/04 04:09:25;;;;;;;5.45;1.38;;;9.60;93.90;;;;;;5075826;28;20032;-71
2024/04/04 04:11:51;;;;;;;6.13;1.55;;;9.60;95.30;;;;;;5075891;28;20032;-72
2024/04/04 04:14:16;;;;;;;6.95;1.83;;;9.60;97.60;;;;;;5075568;28;20048;-71
2024/04/04 04:16:43;;;;;;;5.15;1.40;;;9.60;98.60;;;;;;5074650;28;20074;-72
2024/04/04 04:19:08;;;;;;;8.38;1.60;;;9.50;99.90;;;;;;5075509;28;20035;-72
2024/04/04 04:21:34;;;;;;;7.07;1.95;;;9.50;99.90;;;;;;5075594;28;20028;-71
2024/04/04 04:24:00;;;;;;;5.88;1.90;;;9.60;99.90;;;;;;5075607;28;20063;-72
2024/04/04 04:26:26;;;;;;;6.53;1.85;;;9.60;99.90;;;;;;5075596;28;20029;-72
2024/04/04 04:28:52;;;;;;;5.13;1.80;;;9.60;99.90;;;;;;5075459;28;20364;-71
2024/04/04 04:31:24;;;;;;;5.85;1.98;;;9.70;99.90;;;;;;5075548;28;20024;-71
2024/04/04 04:33:50;;;;;;;3.40;1.75;;;9.70;99.90;;;;;;5075604;28;20520;-72
2024/04/04 04:36:16;;;;;;;7.53;2.28;;;9.70;99.90;;;;;;5075405;28;20036;-71
2024/04/04 04:38:42;;;;;;;8.00;2.92;;;9.80;99.90;;;;;;5075016;28;20013;-72
2024/04/04 04:41:08;;;;;;;7.88;2.25;;;9.90;99.90;;;;;;5075355;28;20021;-72
2024/04/04 04:43:34;;;;;;;8.98;2.67;;;9.90;99.90;;;;;;5074908;28;20024;-72
2024/04/04 04:46:00;;;;;;;7.82;1.90;;;9.90;99.90;;;;;;5075257;28;20039;-72
2024/04/04 04:48:25;;;;;;;3.75;1.67;;;10.00;99.90;;;;;;5075151;28;20035;-72
2024/04/04 04:50:51;;;;;;;9.43;2.22;;;10.10;99.90;;;;;;5075170;28;20449;-71
2024/04/04 04:53:16;;;;;;;4.75;1.63;;;10.10;99.90;;;;;;5074579;28;20025;-71
2024/04/04 04:55:42;;;;;;;9.55;1.90;;;10.10;99.90;;;;;;5073325;28;20035;-71
2024/04/04 04:58:07;;;;;;;4.53;1.80;;;10.20;99.90;;;;;;5074804;28;20126;-72
2024/04/04 05:00:33;;;;;;;4.70;1.90;;;10.10;99.90;;;;;;5074440;28;20474;-72
2024/04/04 05:02:58;;;;;;;3.35;1.73;;;10.20;99.90;;;;;;5074265;28;20387;-71
2024/04/04 05:05:24;;;;;;;4.97;1.83;;;10.20;99.90;;;;;;5074012;28;20108;-71
2024/04/04 05:07:51;;;;;;;3.00;1.80;;;10.20;99.90;;;;;;5073959;28;20063;-71
2024/04/04 05:10:16;;;;;;;3.95;1.52;;;10.20;99.90;;;;;;5074797;28;20032;-71
2024/04/04 05:12:42;;;;;;;4.40;1.70;;;10.30;99.90;;;;;;5074545;28;20032;-71
2024/04/04 05:15:07;;;;;;;6.63;2.33;;;10.30;99.90;;;;;;5074174;28;20097;-71
2024/04/04 05:17:33;;;;;;;6.65;1.85;;;10.30;99.90;;;;;;5073956;28;20036;-71
2024/04/04 05:19:58;;;;;;;4.05;1.88;;;10.30;99.90;;;;;;5074363;28;20028;-72
2024/04/04 05:22:27;;;;;;;6.97;1.58;;;10.30;99.90;;;;;;5074500;28;20119;-72
2024/04/04 05:24:56;;;;;;;5.95;1.98;;;10.30;99.90;;;;;;5074394;28;20025;-72
2024/04/04 05:27:22;;;;;;;5.57;1.60;;;10.40;99.90;;;;;;5073768;28;20026;-71
2024/04/04 05:29:51;;;;;;;4.70;1.70;;;10.40;99.90;;;;;;5074323;28;20029;-71
2024/04/04 05:32:17;;;;;;;6.85;1.75;;;10.40;99.90;;;;;;5074236;28;20052;-71
2024/04/04 05:34:42;;;;;;;5.97;2.35;;;10.40;99.90;;;;;;5073683;28;20033;-71
2024/04/04 05:37:08;;;;;;;3.38;1.70;;;10.50;99.90;;;;;;5073762;28;20024;-72
2024/04/04 05:39:34;;;;;;;3.72;1.80;;;10.60;99.90;;;;;;5074041;28;20033;-71
2024/04/04 05:41:59;;;;;;;3.28;1.85;;;10.60;99.90;;;;;;5074074;28;20037;-71
2024/04/04 05:44:25;;;;;;;4.97;2.00;;;10.60;99.90;;;;;;5073957;28;20052;-71
2024/04/04 05:46:51;;;;;;;3.78;1.92;;;10.70;99.90;;;;;;5073601;28;20490;-72
2024/04/04 05:49:16;;;;;;;3.92;1.77;;;10.70;99.90;;;;;;5073593;28;20028;-72
2024/04/04 05:51:42;;;;;;;4.22;2.33;;;10.70;99.90;;;;;;5072642;28;20055;-71
2024/04/04 05:54:07;;;;;;;4.65;2.03;;;10.70;99.90;;;;;;5073031;28;20056;-70
2024/04/04 05:56:33;;;;;;;4.07;1.98;;;10.80;99.90;;;;;;5073023;28;20028;-69
2024/04/04 05:58:58;;;;;;;6.20;2.15;;;10.80;99.90;;;;;;5072936;28;20032;-69
2024/04/04 06:01:24;;;;;;;2.97;1.77;;;10.90;99.90;;;;;;5075650;28;20032;-69
2024/04/04 06:03:49;;;;;;;4.18;1.67;;;10.90;99.90;;;;;;5086152;28;20059;-70
2024/04/04 06:06:15;;;;;;;4.63;1.58;;;11.00;99.90;;;;;;5072835;28;20032;-70
2024/04/04 06:08:41;;;;;;;3.38;1.42;;;11.00;99.90;;;;;;5072939;28;20056;-70
2024/04/04 06:11:06;;;;;;;3.28;2.00;;;11.10;99.90;;;;;;5072557;28;20548;-69
2024/04/04 06:13:32;;;;;;;4.40;1.67;;;11.20;99.90;;;;;;5078688;28;20059;-69
2024/04/04 06:16:01;;;;;;;5.18;1.70;;;11.20;99.90;;;;;;5066481;28;20033;-70
2024/04/04 06:18:27;;;;;;;4.50;1.73;;;11.30;99.90;;;;;;5078624;28;20140;-70
2024/04/04 06:20:53;;;;;;;5.90;1.95;;;11.30;99.90;;;;;;5079739;28;20364;-69
2024/04/04 06:23:19;;;;;;;3.05;1.92;;;11.40;99.90;;;;;;5064120;28;20036;-68
2024/04/04 06:25:44;;;;;;;5.18;1.52;;;11.40;99.90;;;;;;5073534;28;20067;-69
2024/04/04 06:28:10;;;;;;;3.13;1.83;;;11.40;99.90;;;;;;5074987;28;20557;-70
2024/04/04 06:30:36;;;;;;;2.88;1.40;;;11.50;99.90;;;;;;5084888;28;20493;-72
2024/04/04 06:33:02;;;;;;;5.47;1.70;;;11.60;99.90;;;;;;5072230;28;20107;-72
2024/04/04 06:35:27;;;;;;;4.47;1.65;;;11.60;99.90;;;;;;5067280;28;20024;-71
2024/04/04 06:37:53;;;;;;;5.40;1.60;;;11.70;99.90;;;;;;5063028;28;20032;-69
2024/04/04 06:40:18;;;;;;;4.22;1.50;;;11.70;99.90;;;;;;5064922;28;20040;-68
2024/04/04 06:42:45;;;;;;;4.70;1.50;;;11.70;99.90;;;;;;5063911;28;20028;-69
2024/04/04 06:45:11;;;;;;;3.92;1.48;;;11.70;99.90;;;;;;5060342;28;20039;-71
2024/04/04 06:47:41;;;;;;;4.35;1.85;;;11.70;99.90;;;;;;5061886;28;20128;-69
2024/04/04 06:50:06;;;;;;;4.05;1.33;;;11.80;99.90;;;;;;5062147;28;20028;-68
2024/04/04 06:52:32;;;;;;;3.05;1.25;;;11.80;99.90;;;;;;5062436;28;20498;-70
2024/04/04 06:54:58;;;;;;;6.03;1.30;;;11.80;99.90;;;;;;5069019;28;20032;-69
2024/04/04 06:57:25;;;;;;;9.50;2.17;;;11.80;99.90;;;;;;5071420;28;20036;-68
2024/04/04 06:59:50;;;;;;;4.18;1.58;;;11.80;99.90;;;;;;5066157;28;20391;-69
2024/04/04 07:02:16;;;;;;;5.43;1.75;;;11.80;99.90;;;;;;5062989;28;20029;-69
2024/04/04 07:04:41;;;;;;;5.70;1.83;;;11.80;99.90;;;;;;5066662;28;20032;-69
2024/04/04 07:07:07;;;;;;;9.88;2.17;;;11.80;99.90;;;;;;5058531;28;20043;-69
2024/04/04 07:09:32;;;;;;;4.30;1.80;;;11.70;99.90;;;;;;5070280;28;20467;-72
2024/04/04 07:11:58;;;;;;;7.65;1.95;;;11.70;99.90;;;;;;5058368;28;20362;-70
2024/04/04 07:14:23;;;;;;;6.10;1.90;;;11.70;99.90;;;;;;5069128;28;20529;-69
2024/04/04 07:16:49;;;;;;;9.55;2.80;;;11.70;99.90;;;;;;5075828;28;20040;-70
2024/04/04 07:19:15;;;;;;;7.18;1.75;;;11.80;99.90;;;;;;5064430;28;20024;-70
2024/04/04 07:21:40;;;;;;;2.28;1.77;;;11.80;99.90;;;;;;5068099;28;20020;-68
2024/04/04 07:24:06;;;;;;;5.07;1.85;;;11.80;99.90;;;;;;5064686;28;20073;-69
2024/04/04 07:26:31;;;;;;;6.18;1.90;;;11.80;99.90;;;;;;5079854;28;20032;-69
2024/04/04 07:28:57;;;;;;;4.80;1.75;;;11.80;99.90;;;;;;5062826;28;20106;-73
2024/04/04 07:31:22;;;;;;;4.75;1.90;;;11.80;99.90;;;;;;5063249;28;20025;-76
2024/04/04 07:33:48;;;;;;;7.65;1.90;;;11.80;99.90;;;;;;5063120;28;20047;-75
2024/04/04 07:36:14;;;;;;;6.53;2.10;;;11.80;99.90;;;;;;5063794;28;20029;-75
2024/04/04 07:38:39;;;;;;;5.07;1.65;;;11.80;99.90;;;;;;5062746;28;20431;-73
2024/04/04 07:41:05;;;;;;;5.85;1.90;;;11.80;99.90;;;;;;5065895;28;20405;-73
2024/04/04 07:43:31;;;;;;;5.20;1.60;;;11.90;99.90;;;;;;5054716;28;20074;-74
2024/04/04 07:45:57;;;;;;;2.30;1.98;;;11.90;99.90;;;;;;5054191;28;20089;-74
2024/04/04 07:48:23;;;;;;;6.15;1.70;;;12.00;99.90;;;;;;5058638;28;20490;-74
2024/04/04 07:50:48;;;;;;;2.90;1.65;;;12.00;99.90;;;;;;5060838;28;20475;-76
2024/04/04 07:53:14;;;;;;;5.75;1.50;;;12.00;99.90;;;;;;5066177;28;20047;-74
2024/04/04 07:55:40;;;;;;;3.28;1.45;;;12.20;99.90;;;;;;5061524;28;20033;-73
2024/04/04 07:58:06;;;;;;;3.85;1.60;;;12.30;99.90;;;;;;5069921;28;20047;-74
2024/04/04 08:00:32;;;;;;;5.43;1.48;;;12.40;99.90;;;;;;5063735;28;20021;-74
2024/04/04 08:02:59;;;;;;;2.75;1.08;;;12.60;99.90;;;;;;5061393;28;20035;-75
2024/04/04 08:05:25;;;;;;;2.72;1.42;;;12.70;99.90;;;;;;5060219;28;20020;-73
2024/04/04 08:07:50;;;;;;;5.20;1.77;;;12.70;99.90;;;;;;5067920;28;20482;-72
2024/04/04 08:10:18;;;;;;;3.50;1.40;;;12.70;99.90;;;;;;5058340;28;20255;-73
2024/04/04 08:12:44;;;;;;;2.53;1.20;;;12.70;99.90;;;;;;5059710;28;20075;-74
2024/04/04 08:15:12;;;;;;;1.98;0.85;;;12.60;99.90;;;;;;5065680;28;20462;-72
2024/04/04 08:17:40;;;;;;;3.83;1.20;;;12.60;99.90;;;;;;5069408;28;20045;-71
2024/04/04 08:20:08;;;;;;;2.72;1.10;;;12.60;99.90;;;;;;5064562;28;20049;-72
2024/04/04 08:22:34;;;;;;;3.28;1.13;;;12.60;99.90;;;;;;5067130;28;20036;-73
2024/04/04 08:25:00;;;;;;;2.47;1.20;;;12.60;99.90;;;;;;5056096;28;20028;-73
2024/04/04 08:27:26;;;;;;;1.33;0.90;;;12.80;99.90;;;;;;5064306;28;20055;-74
2024/04/04 08:29:51;;;;;;;2.42;1.00;;;12.80;99.90;;;;;;5061062;28;20517;-74
2024/04/04 08:32:17;;;;;;;1.83;1.00;;;12.70;99.90;;;;;;5059029;28;20111;-73
2024/04/04 08:34:43;;;;;;;1.85;0.93;;;12.60;99.90;;;;;;5066574;28;20067;-74
2024/04/04 08:37:10;;;;;;;4.68;1.30;;;12.60;99.90;;;;;;5065155;28;20071;-74
2024/04/04 08:39:36;;;;;;;1.13;0.80;;;12.60;99.90;;;;;;5065180;28;20025;-74
2024/04/04 08:42:02;;;;;;;2.38;1.00;;;12.60;99.90;;;;;;5060469;28;20021;-75
2024/04/04 08:44:28;;;;;;;4.10;1.23;;;12.70;99.90;;;;;;5061837;28;20437;-75
2024/04/04 08:46:54;;;;;;;2.08;0.98;;;12.60;99.90;;;;;;5068098;28;20028;-74
2024/04/04 08:49:20;;;;;;;1.55;1.30;;;12.60;99.90;;;;;;5071737;28;20486;-74
2024/04/04 08:51:48;;;;;;;1.98;1.00;;;12.50;99.90;;;;;;5072387;28;20529;-72
2024/04/04 08:54:13;;;;;;;2.92;1.35;;;12.60;99.90;;;;;;5065670;28;20120;-73
2024/04/04 08:56:42;;;;;;;3.28;1.25;;;12.60;99.90;;;;;;5060514;28;20156;-74
2024/04/04 08:59:07;;;;;;;2.17;1.08;;;12.60;99.90;;;;;;5069255;28;20126;-74
2024/04/04 09:01:33;;;;;;;4.55;1.73;;;12.70;99.90;;;;;;5069032;28;20112;-73
2024/04/04 09:03:59;;;;;;;3.25;1.55;;;12.50;99.90;;;;;;5074468;28;20043;-72
2024/04/04 09:06:25;;;;;;;3.38;1.10;;;12.20;99.90;;;;;;5070485;28;20032;-73
2024/04/04 09:08:54;;;;;;;3.65;1.05;;;12.10;99.90;;;;;;5067165;28;20024;-73
2024/04/04 09:11:25;;;;;;;2.92;0.98;;;12.00;99.90;;;;;;5064230;28;20020;-72
2024/04/04 09:14:01;;;;;;;4.30;1.58;;;12.00;99.90;;;;;;5064351;28;20040;-74
2024/04/04 09:16:27;;;;;;;2.15;1.20;;;12.00;99.90;;;;;;5056777;28;20494;-74
2024/04/04 09:18:54;;;;;;;2.38;1.55;;;12.00;99.90;;;;;;5070916;28;20040;-74
2024/04/04 09:21:19;;;;;;;6.38;1.40;;;12.00;99.90;;;;;;5056352;28;20497;-74
2024/04/04 09:23:45;;;;;;;2.65;1.60;;;12.00;99.90;;;;;;5061936;28;20113;-73
2024/04/04 09:26:10;;;;;;;4.25;1.92;;;12.00;99.90;;;;;;5059315;28;20039;-74
2024/04/04 09:28:37;;;;;;;5.05;1.40;;;12.00;99.90;;;;;;5061654;28;20399;-72
2024/04/04 09:31:07;;;;;;;3.63;1.10;;;12.10;99.90;;;;;;5067598;28;20108;-73
2024/04/04 09:33:35;;;;;;;0.80;0.80;;;12.20;99.90;;;;;;5071564;28;20025;-73
2024/04/04 09:36:03;;;;;;;3.97;0.95;;;12.40;99.90;;;;;;5061974;28;20039;-74
2024/04/04 09:38:29;;;;;;;2.50;1.15;;;12.50;99.90;;;;;;5065639;28;20020;-73
2024/04/04 09:40:58;;;;;;;1.88;0.80;;;12.50;99.90;;;;;;5064405;28;20033;-73
2024/04/04 09:43:26;;;;;;;1.27;0.82;;;12.60;99.90;;;;;;5059145;28;20067;-73
2024/04/04 09:45:52;;;;;;;1.42;0.90;;;12.70;99.90;;;;;;5065793;28;20471;-73
2024/04/04 09:48:20;;;;;;;1.92;1.00;;;12.80;99.90;;;;;;5068523;28;20028;-72
2024/04/04 09:50:45;;;;;;;2.60;0.70;;;12.80;99.90;;;;;;5067247;28;20044;-73
2024/04/04 09:53:11;;;;;;;1.95;0.77;;;12.90;99.90;;;;;;5068113;28;20032;-74
2024/04/04 09:55:37;;;;;;;4.03;1.02;;;13.00;99.90;;;;;;5067604;28;20025;-74
2024/04/04 09:58:03;;;;;;;2.85;1.15;;;13.00;99.90;;;;;;5067141;28;20478;-74
2024/04/04 10:00:29;;;;;;;2.72;1.02;;;13.10;99.90;;;;;;5074509;28;20032;-74
2024/04/04 10:02:56;;;;;;;2.47;1.27;;;13.20;99.90;;;;;;5066446;28;20032;-72
2024/04/04 10:05:33;;;;;;;1.88;1.20;;;13.30;99.90;;;;;;5067989;28;20127;-73
2024/04/04 10:08:14;;;;;;;2.33;0.80;;;13.20;99.90;;;;;;5060389;28;20062;-74
2024/04/04 10:10:41;;;;;;;1.77;0.90;;;13.30;99.90;;;;;;5060548;28;20420;-73
2024/04/04 10:13:08;;;;;;;1.73;0.90;;;13.30;99.90;;;;;;5068168;28;20036;-73
2024/04/04 10:15:50;;;;;;;4.32;1.38;;;13.30;99.90;;;;;;5059039;28;20028;-74
2024/04/04 10:18:18;;;;;;;4.88;1.25;;;13.50;99.90;;;;;;5058525;28;20525;-73
2024/04/04 10:20:52;;;;;;;2.25;1.08;;;13.50;99.90;;;;;;5061400;28;20036;-72
2024/04/04 10:23:24;;;;;;;1.90;0.93;;;13.60;99.90;;;;;;5063298;28;20042;-73
2024/04/04 10:25:50;;;;;;;0.98;0.75;;;13.50;99.90;;;;;;5059421;28;20483;-72
2024/04/04 10:28:16;;;;;;;2.25;0.70;;;13.40;99.90;;;;;;5059483;28;20039;-74
2024/04/04 10:30:42;;;;;;;1.35;0.70;;;13.50;99.90;;;;;;5056547;28;20021;-72
2024/04/04 10:33:13;;;;;;;2.05;0.63;;;13.50;99.90;;;;;;5055939;28;20090;-73
2024/04/04 10:35:39;;;;;;;2.60;0.77;;;13.60;99.90;;;;;;5063231;28;20760;-73
2024/04/04 10:40:49;;;;;;;1.80;0.90;;;13.40;99.90;;;;;;5056943;28;20905;-72
2024/04/04 10:43:14;;;;;;;1.80;0.65;;;13.50;99.90;;;;;;5054771;28;20071;-73
2024/04/04 10:45:40;;;;;;;1.42;0.98;;;13.80;99.90;;;;;;5069794;28;20024;-72
2024/04/04 10:48:06;;;;;;;2.05;0.55;;;14.10;99.90;;;;;;5062730;28;20134;-74
2024/04/04 10:50:33;;;;;;;2.17;0.82;;;14.10;99.90;;;;;;5059592;28;20048;-73
2024/04/04 10:52:59;;;;;;;2.70;0.90;;;13.90;99.90;;;;;;5061415;28;20045;-73
2024/04/04 10:55:26;;;;;;;3.53;1.55;;;13.90;99.90;;;;;;5059844;28;20029;-74
2024/04/04 10:57:53;;;;;;;1.90;0.80;;;13.80;99.90;;;;;;5059266;28;20052;-74
2024/04/04 11:00:20;;;;;;;2.10;0.80;;;13.70;99.90;;;;;;5054955;28;20546;-71
2024/04/04 11:02:48;;;;;;;1.45;0.60;;;13.60;99.90;;;;;;5054488;28;20399;-71
2024/04/04 11:05:14;;;;;;;1.98;0.82;;;13.50;99.90;;;;;;5061809;28;20512;-72
2024/04/04 11:07:42;;;;;;;1.77;0.80;;;13.50;99.90;;;;;;5060279;28;20025;-71
2024/04/04 11:10:08;;;;;;;3.25;0.98;;;13.50;99.90;;;;;;5059229;28;20034;-72
2024/04/04 11:12:34;;;;;;;0.95;0.63;;;13.60;96.20;;;;;;5060818;28;20028;-72
2024/04/04 11:15:00;;;;;;;1.42;0.80;;;13.90;97.10;;;;;;5057402;28;20051;-73
2024/04/04 11:17:26;;;;;;;2.67;0.88;;;14.20;63.20;;;;;;5061191;28;20029;-73
2024/04/04 11:20:08;;;;;;;1.83;0.90;;;14.30;56.30;;;;;;5070694;28;20043;-73
2024/04/04 11:22:35;;;;;;;2.03;1.02;;;14.40;45.90;;;;;;5071285;28;20399;-73
2024/04/04 11:25:02;;;;;;;3.33;1.00;;;14.40;28.10;;;;;;5064146;28;20063;-74
2024/04/04 11:27:28;;;;;;;3.80;1.02;;;14.20;17.60;;;;;;5068827;28;20489;-72
2024/04/04 11:29:53;;;;;;;4.88;1.23;;;14.20;18.60;;;;;;5061284;28;20035;-73
2024/04/04 11:32:19;;;;;;;3.10;1.13;;;14.20;11.60;;;;;;5063057;28;20060;-73
2024/04/04 11:34:46;;;;;;;5.10;1.38;;;14.20;1.40;;;;;;5059002;28;20028;-75
2024/04/04 11:37:12;;;;;;;4.28;2.00;;;;;;;;;;5059500;28;20024;-74
2024/04/04 11:39:38;;;;;;;4.97;1.15;;;15.30;1.00;;;;;;5063680;28;20079;-73
2024/04/04 11:42:04;;;;;;;4.93;1.20;;;14.50;1.00;;;;;;5065032;28;20029;-74
2024/04/04 11:44:29;;;;;;;2.17;1.10;;;14.60;1.00;;;;;;5056898;28;20033;-73
2024/04/04 11:46:55;;;;;;;1.80;0.90;;;14.80;1.00;;;;;;5068584;28;20032;-73
2024/04/04 11:49:21;;;;;;;3.38;1.08;;;14.80;1.00;;;;;;5063705;28;20231;-73
2024/04/04 11:51:47;;;;;;;2.50;0.88;;;14.80;1.00;;;;;;5051324;28;20209;-74
2024/04/04 11:54:13;;;;;;;3.40;1.05;;;14.70;1.00;;;;;;5046486;28;20025;-73
2024/04/04 11:56:39;;;;;;;1.27;1.08;;;14.80;1.00;;;;;;5053373;28;20048;-72
2024/04/04 11:59:05;;;;;;;1.42;0.85;;;14.80;1.00;;;;;;5046859;28;20060;-73
2024/04/04 12:01:31;;;;;;;2.95;1.10;;;14.90;1.00;;;;;;5049135;28;20101;-72
2024/04/04 12:03:57;;;;;;;3.80;1.25;;;14.90;1.00;;;;;;5043234;28;20394;-72
2024/04/04 12:06:23;;;;;;;3.35;0.70;;;14.90;1.00;;;;;;5043324;28;20535;-73
2024/04/04 12:08:49;;;;;;;2.17;0.80;;;14.80;1.00;;;;;;5047322;28;20117;-72
2024/04/04 12:11:15;;;;;;;2.30;0.90;;;14.70;1.00;;;;;;5048201;28;20037;-73
2024/04/04 12:13:40;;;;;;;2.25;0.90;;;14.70;1.00;;;;;;5048551;28;20436;-71
2024/04/04 12:16:08;;;;;;;5.55;0.93;;;14.70;1.00;;;;;;5047805;28;20032;-73
2024/04/04 12:21:19;;;;;;;3.28;1.17;;;14.80;99.90;;;;;;5049727;28;20035;-74
2024/04/04 12:23:46;;;;;;;2.33;0.80;;;15.00;99.90;;;;;;5051408;28;20024;-74
2024/04/04 12:26:13;;;;;;;3.92;1.33;;;15.20;99.90;;;;;;5048199;28;20036;-74
2024/04/04 12:28:38;;;;;;;2.47;0.80;;;15.30;99.90;;;;;;5048507;28;20402;-73
2024/04/04 12:31:05;;;;;;;6.30;0.95;;;15.30;99.90;;;;;;5043364;28;20028;-73
2024/04/04 12:33:30;;;;;;;3.30;1.02;;;15.30;99.90;;;;;;5040114;28;20036;-74
2024/04/04 12:35:56;;;;;;;7.55;1.20;;;15.40;99.90;;;;;;5043013;28;20407;-74
2024/04/04 12:38:22;;;;;;;3.33;0.88;;;15.20;99.90;;;;;;5046583;28;20123;-74
2024/04/04 12:40:48;;;;;;;4.95;1.00;;;15.10;99.90;;;;;;5054330;28;20036;-73
2024/04/04 12:43:15;;;;;;;4.28;1.00;;;15.20;99.90;;;;;;5051092;28;20033;-73
2024/04/04 12:45:45;;;;;;;2.33;0.80;;;15.20;99.90;;;;;;5050645;28;20479;-74
2024/04/04 12:48:10;;;;;;;3.95;0.98;;;15.20;99.90;;;;;;5049737;28;20058;-74
2024/04/04 12:50:36;;;;;;;3.35;1.00;;;15.00;99.90;;;;;;5046513;28;20033;-75